Time;durP1;ratioP1;P1;durP2;ratioP2;P2;SDS_P1;SDS_P2;PMS_P1;PMS_P2;Temp;Humidity;BMP_temperature;BMP_pressure;BME280_temperature;BME280_humidity;BME280_pressure;Samples;Min_cycle;Max_cycle;Signal;HPM_P1;HPM_P2
2022/07/14 00:00:06;;;;;;;13.57;2.30;;;;;;;16.41;72.58;101975.13;5068795;28;20797;-74
2022/07/14 00:02:34;;;;;;;12.27;2.47;;;;;;;16.38;72.81;101976.13;5070606;28;20040;-74
2022/07/14 00:05:01;;;;;;;12.30;2.47;;;;;;;16.35;72.83;101970.91;5090578;28;20040;-74
2022/07/14 00:07:28;;;;;;;12.95;2.30;;;;;;;16.34;72.98;101966.50;5092415;28;20499;-74
2022/07/14 00:09:55;;;;;;;12.05;2.20;;;;;;;16.33;73.63;101966.56;5065167;28;20120;-74
2022/07/14 00:12:24;;;;;;;12.32;2.33;;;;;;;16.29;73.69;101973.81;5074938;28;20095;-74
2022/07/14 00:14:51;;;;;;;9.85;2.28;;;;;;;16.30;74.42;101975.53;5079051;28;20219;-74
2022/07/14 00:17:18;;;;;;;15.85;2.70;;;;;;;16.33;74.34;101979.88;5068317;28;20051;-75
2022/07/14 00:19:46;;;;;;;13.60;2.60;;;;;;;16.31;74.04;101977.28;5075633;28;20045;-75
2022/07/14 00:22:13;;;;;;;15.32;2.20;;;;;;;16.32;74.25;101978.13;5071926;28;20046;-75
2022/07/14 00:24:40;;;;;;;11.25;2.45;;;;;;;16.32;74.59;101970.16;5085210;28;20044;-75
2022/07/14 00:27:08;;;;;;;11.50;2.35;;;;;;;16.32;73.99;101970.16;5083280;28;20072;-74
2022/07/14 00:29:36;;;;;;;11.50;2.33;;;;;;;16.29;74.20;101972.00;5086317;28;20041;-74
2022/07/14 00:32:06;;;;;;;11.30;2.30;;;;;;;16.27;74.23;101973.88;5083629;28;20122;-75
2022/07/14 00:34:34;;;;;;;11.77;2.30;;;;;;;16.26;74.57;101982.78;5086567;28;20048;-75
2022/07/14 00:37:04;;;;;;;10.55;2.42;;;;;;;16.23;74.42;101974.91;5067563;28;20037;-76
2022/07/14 00:39:54;;;;;;;9.20;2.47;;;;;;;16.21;74.75;101971.41;5069592;28;20044;-75
2022/07/14 00:42:40;;;;;;;13.35;2.60;;;;;;;16.21;74.89;101971.41;5059068;28;20079;-73
2022/07/14 00:45:11;;;;;;;11.07;2.45;;;;;;;16.24;74.66;101971.31;5070944;28;20113;-74
2022/07/14 00:47:39;;;;;;;10.38;2.50;;;;;;;16.27;74.51;101965.00;5082595;28;20049;-73
2022/07/14 00:50:10;;;;;;;13.32;2.63;;;;;;;16.28;74.72;101953.44;5087126;28;20041;-73
2022/07/14 00:52:42;;;;;;;9.57;2.05;;;;;;;16.28;74.54;101940.13;5065680;28;20072;-74
2022/07/14 00:55:12;;;;;;;15.30;2.63;;;;;;;16.28;74.26;101934.81;5074808;28;20048;-73
2022/07/14 00:57:40;;;;;;;9.82;2.40;;;;;;;16.17;74.11;101937.88;5105269;28;20044;-74
2022/07/14 01:00:13;;;;;;;7.78;2.13;;;;;;;16.08;74.09;101943.50;5074142;28;20051;-73
2022/07/14 01:02:44;;;;;;;10.02;2.67;;;;;;;15.98;73.91;101949.16;5080903;28;20581;-75
2022/07/14 01:05:11;;;;;;;10.43;2.42;;;;;;;15.95;74.36;101961.69;5072441;28;20140;-77
2022/07/14 01:07:38;;;;;;;12.93;2.67;;;;;;;15.92;74.46;101972.47;5074185;28;20094;-76
2022/07/14 01:10:07;;;;;;;13.38;2.63;;;;;;;15.92;75.12;101975.97;5070294;28;20052;-77
2022/07/14 01:12:34;;;;;;;12.30;2.67;;;;;;;15.94;75.19;101982.13;5075779;28;20041;-76
2022/07/14 01:15:03;;;;;;;11.93;2.28;;;;;;;15.96;75.62;101976.75;5069815;28;20561;-77
2022/07/14 01:17:31;;;;;;;10.35;2.72;;;;;;;16.00;75.69;101965.09;5059651;28;20581;-73
2022/07/14 01:19:58;;;;;;;9.55;2.28;;;;;;;16.05;75.45;101967.56;5070708;28;20824;-74
2022/07/14 01:22:26;;;;;;;13.63;2.33;;;;;;;16.09;75.49;101962.09;5097705;28;20041;-74
2022/07/14 01:24:53;;;;;;;11.27;2.47;;;;;;;16.06;75.12;101978.16;5062316;28;20520;-73
2022/07/14 01:27:20;;;;;;;11.32;2.28;;;;;;;16.00;74.90;101981.03;5084086;28;20060;-72
2022/07/14 01:29:47;;;;;;;11.65;2.60;;;;;;;15.95;75.09;101980.31;5072217;28;20420;-73
2022/07/14 01:32:14;;;;;;;14.38;2.90;;;;;;;15.95;75.27;101990.94;5081750;28;20155;-72
2022/07/14 01:34:42;;;;;;;9.27;2.33;;;;;;;15.92;75.19;101983.97;5104903;28;20067;-71
2022/07/14 01:37:09;;;;;;;13.90;2.45;;;;;;;15.93;75.55;101987.47;5106296;28;20102;-71
2022/07/14 01:39:36;;;;;;;10.88;3.00;;;;;;;15.91;75.45;101989.34;5112072;28;20053;-71
2022/07/14 01:42:05;;;;;;;16.50;3.08;;;;;;;15.88;75.59;101995.59;5087517;28;20041;-72
2022/07/14 01:44:33;;;;;;;11.15;3.10;;;;;;;15.82;75.56;101982.50;5105713;28;20033;-72
2022/07/14 01:47:00;;;;;;;16.50;3.00;;;;;;;15.79;75.76;101986.16;5055906;28;20052;-72
2022/07/14 01:49:28;;;;;;;11.70;2.65;;;;;;;15.74;75.87;101992.53;5063376;28;20704;-72
2022/07/14 01:51:57;;;;;;;11.95;3.00;;;;;;;15.69;75.73;101990.03;5078767;28;20124;-75
2022/07/14 01:54:27;;;;;;;16.33;3.30;;;;;;;15.65;75.99;101991.94;5067642;28;20052;-74
2022/07/14 01:56:54;;;;;;;12.73;2.97;;;;;;;15.64;76.51;101990.19;5080547;28;20519;-74
2022/07/14 01:59:22;;;;;;;12.80;3.25;;;;;;;15.63;76.43;101991.09;5077356;28;20081;-74
2022/07/14 02:01:49;;;;;;;11.75;2.80;;;;;;;15.60;76.71;101993.84;5065638;28;20056;-73
2022/07/14 02:04:20;;;;;;;11.68;2.97;;;;;;;15.59;76.45;101993.91;5050783;28;20091;-73
2022/07/14 02:06:54;;;;;;;12.20;2.95;;;;;;;15.57;76.78;101993.94;5063791;28;20052;-74
2022/07/14 02:12:45;;;;;;;11.63;2.90;;;;;;;15.46;76.79;101991.66;5081924;28;20041;-76
2022/07/14 02:15:13;;;;;;;15.70;3.53;;;;;;;15.42;77.11;101997.97;5074626;28;20128;-77
2022/07/14 02:17:42;;;;;;;12.52;2.97;;;;;;;15.41;77.24;101992.72;5073265;28;20856;-76
2022/07/14 02:20:11;;;;;;;14.00;2.92;;;;;;;15.38;77.29;101969.78;5073844;28;20478;-75
2022/07/14 02:22:39;;;;;;;10.68;3.13;;;;;;;15.40;77.39;101967.97;5071477;28;20052;-76
2022/07/14 02:25:07;;;;;;;10.63;3.13;;;;;;;15.34;77.45;101970.78;5074009;28;20045;-74
2022/07/14 02:27:35;;;;;;;13.98;3.42;;;;;;;15.26;77.56;101965.72;5071202;28;20551;-75
2022/07/14 02:30:05;;;;;;;14.30;3.22;;;;;;;15.22;77.95;101966.75;5055012;28;20045;-73
2022/07/14 02:32:32;;;;;;;14.65;4.15;;;;;;;15.20;78.05;101963.28;5067247;28;20041;-73
2022/07/14 02:35:00;;;;;;;15.68;3.70;;;;;;;15.12;78.17;101971.47;5085087;28;20048;-74
2022/07/14 02:37:30;;;;;;;12.25;3.90;;;;;;;15.04;78.18;101966.44;5074937;28;20080;-73
2022/07/14 02:39:59;;;;;;;10.88;2.95;;;;;;;15.03;78.69;101964.69;5078762;28;20103;-73
2022/07/14 02:42:26;;;;;;;14.40;3.65;;;;;;;15.00;78.60;101971.88;5078435;28;20045;-74
2022/07/14 02:44:53;;;;;;;20.10;4.05;;;;;;;14.95;78.75;101968.50;5087463;28;20478;-74
2022/07/14 02:47:21;;;;;;;11.82;3.50;;;;;;;14.92;78.89;101964.16;5075382;28;20140;-74
2022/07/14 02:49:48;;;;;;;15.73;3.63;;;;;;;14.88;79.04;101967.81;5090531;28;20442;-74
2022/07/14 02:52:16;;;;;;;15.10;4.15;;;;;;;14.85;79.31;101970.56;5070764;28;20495;-74
2022/07/14 02:54:46;;;;;;;13.10;3.97;;;;;;;14.82;79.03;101981.28;5085683;28;20041;-74
2022/07/14 02:57:14;;;;;;;11.32;3.85;;;;;;;14.76;78.83;101974.34;5078019;28;20046;-73
2022/07/14 02:59:42;;;;;;;15.65;3.90;;;;;;;14.73;78.93;101982.41;5106617;28;20091;-72
2022/07/14 03:02:09;;;;;;;14.25;3.95;;;;;;;14.70;79.34;101978.06;5069134;28;20050;-72
2022/07/14 03:04:37;;;;;;;18.10;3.90;;;;;;;14.66;79.22;101986.13;5079919;28;20544;-72
2022/07/14 03:07:04;;;;;;;12.35;3.58;;;;;;;14.60;79.35;101982.72;5080891;28;20102;-72
2022/07/14 03:09:31;;;;;;;15.50;3.63;;;;;;;14.58;79.52;101976.63;5071086;28;20044;-72
2022/07/14 03:12:03;;;;;;;14.38;4.00;;;;;;;14.58;79.89;101976.63;5073310;28;20052;-72
2022/07/14 03:14:33;;;;;;;14.85;3.83;;;;;;;14.55;79.79;101975.84;5064266;28;20041;-72
2022/07/14 03:17:01;;;;;;;15.70;3.40;;;;;;;14.45;79.95;101968.13;5079249;28;20048;-71
2022/07/14 03:19:28;;;;;;;17.33;3.92;;;;;;;14.43;80.19;101955.81;5090100;28;20119;-71
2022/07/14 03:21:56;;;;;;;16.38;3.70;;;;;;;14.42;80.40;101954.97;5068396;28;20045;-72
2022/07/14 03:24:24;;;;;;;17.83;3.85;;;;;;;14.44;80.23;101946.94;5066483;28;20044;-72
2022/07/14 03:26:51;;;;;;;14.35;3.35;;;;;;;14.45;80.07;101957.50;5095644;28;20045;-72
2022/07/14 03:29:18;;;;;;;13.90;3.95;;;;;;;14.44;80.14;101950.50;5104265;28;20051;-72
2022/07/14 03:31:48;;;;;;;12.35;3.50;;;;;;;14.39;80.10;101948.88;5092901;28;20058;-72
2022/07/14 03:34:18;;;;;;;13.77;3.90;;;;;;;14.34;80.38;101948.13;5104583;28;20041;-71
2022/07/14 03:36:47;;;;;;;12.13;3.70;;;;;;;14.27;80.46;101947.44;5090635;28;20049;-72
2022/07/14 03:39:22;;;;;;;18.17;4.30;;;;;;;14.25;80.53;101944.81;5089184;28;20498;-72
2022/07/14 03:41:49;;;;;;;16.48;4.38;;;;;;;14.28;80.86;101939.44;5072234;28;20048;-71
2022/07/14 03:44:17;;;;;;;16.05;3.58;;;;;;;14.32;80.54;101937.56;5072039;28;20067;-71
2022/07/14 03:46:45;;;;;;;13.75;3.63;;;;;;;14.36;80.53;101925.94;5072822;28;20119;-71
2022/07/14 03:49:17;;;;;;;15.13;3.90;;;;;;;14.38;80.35;101928.56;5055687;28;20045;-71
2022/07/14 03:51:45;;;;;;;12.95;3.88;;;;;;;14.37;79.96;101940.94;5069794;28;20099;-74
2022/07/14 03:54:17;;;;;;;17.27;4.22;;;;;;;14.35;80.07;101949.88;5085967;28;20194;-75
2022/07/14 03:56:46;;;;;;;17.45;4.43;;;;;;;14.30;80.24;101957.97;5088338;28;20143;-74
2022/07/14 03:59:17;;;;;;;15.30;3.60;;;;;;;14.32;80.19;101952.59;5089140;28;20075;-75
2022/07/14 04:01:45;;;;;;;14.23;3.75;;;;;;;14.40;80.11;101958.56;5089006;28;20527;-74
2022/07/14 04:04:12;;;;;;;15.85;3.60;;;;;;;14.42;79.90;101959.38;5086191;28;20046;-73
2022/07/14 04:06:40;;;;;;;13.85;3.70;;;;;;;14.47;79.70;101960.13;5069526;28;20116;-73
2022/07/14 04:09:07;;;;;;;16.35;3.63;;;;;;;14.49;79.63;101960.97;5083955;28;20148;-74
2022/07/14 04:11:39;;;;;;;12.00;3.67;;;;;;;14.48;79.46;101963.66;5093103;28;20041;-75
2022/07/14 04:14:07;;;;;;;14.23;3.17;;;;;;;14.45;79.61;101960.16;5084156;28;20045;-76
2022/07/14 04:16:39;;;;;;;13.68;3.50;;;;;;;14.49;79.57;101960.09;5081864;28;20053;-76
2022/07/14 04:19:07;;;;;;;16.40;4.25;;;;;;;14.55;79.47;101942.19;5087779;28;20071;-75
2022/07/14 04:21:36;;;;;;;17.55;3.33;;;;;;;14.62;79.10;101953.50;5071088;28;20051;-75
2022/07/14 04:24:04;;;;;;;13.07;3.60;;;;;;;14.65;78.80;101950.75;5096701;28;20490;-75
2022/07/14 04:26:31;;;;;;;9.95;3.45;;;;;;;14.70;78.87;101943.56;5087019;28;20053;-75
2022/07/14 04:28:59;;;;;;;12.35;3.00;;;;;;;14.75;78.63;101946.94;5072471;28;20832;-75
2022/07/14 04:31:29;;;;;;;14.23;3.38;;;;;;;14.82;78.48;101947.63;5085194;28;20080;-71
2022/07/14 04:33:56;;;;;;;14.45;3.60;;;;;;;14.88;78.15;101952.75;5085233;28;20124;-73
2022/07/14 04:36:23;;;;;;;15.52;3.83;;;;;;;14.93;78.20;101955.28;5069846;28;20064;-73
2022/07/14 04:38:51;;;;;;;11.73;3.47;;;;;;;15.01;77.93;101955.00;5098452;28;20533;-72
2022/07/14 04:41:19;;;;;;;22.25;4.07;;;;;;;15.11;77.46;101955.59;5098964;28;20535;-72
2022/07/14 04:43:46;;;;;;;11.73;3.03;;;;;;;15.12;77.41;101960.00;5073524;28;20053;-72
2022/07/14 04:46:14;;;;;;;12.48;3.55;;;;;;;15.16;77.02;101957.19;5093275;28;20116;-73
2022/07/14 04:54:23;;;;;;;15.52;3.25;;;;;;;15.40;77.54;101964.41;5065836;28;20048;-72
2022/07/14 04:57:10;;;;;;;14.80;3.70;;;;;;;15.83;76.31;101955.00;5087503;28;20536;-72
2022/07/14 04:59:43;;;;;;;;;;;;;;;15.98;75.50;101964.25;5084119;28;20044;-72
2022/07/14 05:02:13;;;;;;;9.65;3.08;;;;;;;16.01;74.22;101966.81;5082784;28;20035;-72
2022/07/14 05:04:42;;;;;;;15.75;3.50;;;;;;;15.90;74.15;101961.88;5070745;28;20064;-73
2022/07/14 05:07:09;;;;;;;14.63;3.85;;;;;;;15.82;74.27;101962.09;5086181;28;20060;-72
2022/07/14 05:09:41;;;;;;;14.27;3.50;;;;;;;15.75;74.46;101968.56;5080064;28;20037;-74
2022/07/14 05:12:13;;;;;;;14.77;3.35;;;;;;;15.72;74.87;101968.66;5085873;28;20052;-73
2022/07/14 05:14:43;;;;;;;15.77;3.28;;;;;;;15.74;74.66;101973.94;5091441;28;20041;-73
2022/07/14 05:17:11;;;;;;;12.18;3.20;;;;;;;15.79;74.89;101977.28;5082373;28;20166;-74
2022/07/14 05:19:51;;;;;;;12.30;3.00;;;;;;;16.01;74.55;101973.91;5085615;28;20120;-72
2022/07/14 05:22:19;;;;;;;11.90;3.08;;;;;;;16.32;74.18;101973.69;5088187;28;20049;-73
2022/07/14 05:24:47;;;;;;;15.60;3.17;;;;;;;16.89;72.66;101970.69;5086806;28;20037;-73
2022/07/14 05:27:14;;;;;;;15.30;3.60;;;;;;;17.25;71.22;101970.16;5084748;28;20098;-73
2022/07/14 05:29:44;;;;;;;13.40;3.00;;;;;;;17.38;70.97;101963.41;5085965;28;20045;-71
2022/07/14 05:32:13;;;;;;;11.98;3.22;;;;;;;17.66;69.84;101954.25;5088268;28;20063;-72
2022/07/14 05:34:44;;;;;;;14.07;3.08;;;;;;;19.24;65.07;101952.47;5067198;28;20543;-73
2022/07/14 05:37:18;;;;;;;12.75;2.75;;;;;;;21.72;58.30;101952.50;5070324;28;20044;-73
2022/07/14 05:39:46;;;;;;;11.27;2.85;;;;;;;23.54;50.92;101957.19;5081735;28;20139;-73
2022/07/14 05:42:13;;;;;;;10.43;2.67;;;;;;;24.94;48.92;101956.41;5084682;28;20048;-74
2022/07/14 05:44:51;;;;;;;10.38;2.33;;;;;;;26.27;45.34;101959.81;5085345;28;20156;-72
2022/07/14 05:47:18;;;;;;;9.90;1.95;;;;;;;27.25;43.10;101958.16;5090115;28;20512;-74
2022/07/14 05:49:48;;;;;;;9.93;2.30;;;;;;;28.06;40.70;101948.63;5089173;28;20044;-73
2022/07/14 05:52:17;;;;;;;10.80;2.30;;;;;;;28.75;38.99;101952.47;5072646;28;20037;-74
2022/07/14 05:54:44;;;;;;;9.73;2.40;;;;;;;29.31;37.08;101955.53;5092377;28;20503;-75
2022/07/14 05:57:14;;;;;;;11.65;2.50;;;;;;;29.42;36.52;101960.88;5088387;28;20049;-70
2022/07/14 05:59:43;;;;;;;7.45;2.00;;;;;;;29.52;36.04;101952.69;5074369;28;20123;-71
2022/07/14 06:02:15;;;;;;;9.07;2.30;;;;;;;29.68;36.13;101954.81;5071234;28;20112;-71
2022/07/14 06:04:45;;;;;;;9.15;2.08;;;;;;;30.06;35.08;101952.19;5088075;28;20057;-71
2022/07/14 06:07:13;;;;;;;13.43;2.55;;;;;;;30.25;34.00;101950.38;5074440;28;20507;-70
2022/07/14 06:09:47;;;;;;;6.97;1.55;;;;;;;30.15;33.61;101955.88;5073339;28;20068;-70
2022/07/14 06:12:16;;;;;;;7.93;1.92;;;;;;;29.87;33.94;101958.47;5085401;28;20045;-74
2022/07/14 06:14:45;;;;;;;10.50;1.90;;;;;;;29.67;34.78;101957.69;5067050;28;20036;-72
2022/07/14 06:17:14;;;;;;;7.07;1.88;;;;;;;29.44;34.47;101953.44;5064372;28;20140;-71
2022/07/14 06:19:42;;;;;;;9.70;1.98;;;;;;;28.28;35.70;101955.75;5087199;28;20044;-72
2022/07/14 06:22:11;;;;;;;9.48;1.95;;;;;;;25.77;40.17;101964.63;5090317;28;20045;-72
2022/07/14 06:24:41;;;;;;;9.30;2.10;;;;;;;23.32;45.13;101965.88;5071050;28;20049;-71
2022/07/14 06:27:18;;;;;;;8.68;2.05;;;;;;;21.76;49.77;101963.06;5089128;28;20037;-71
2022/07/14 06:29:49;;;;;;;15.07;2.40;;;;;;;20.84;53.22;101957.56;5069460;28;20045;-70
2022/07/14 06:32:18;;;;;;;11.93;2.40;;;;;;;20.22;54.45;101958.22;5090292;28;20107;-70
2022/07/14 06:34:50;;;;;;;12.23;2.50;;;;;;;19.68;55.74;101961.88;5081467;28;20139;-71
2022/07/14 06:37:20;;;;;;;10.10;2.30;;;;;;;19.26;57.07;101962.22;5101607;28;20071;-70
2022/07/14 06:39:49;;;;;;;15.00;2.85;;;;;;;19.00;58.50;101959.88;5088417;28;20025;-71
2022/07/14 06:42:18;;;;;;;11.70;2.70;;;;;;;18.76;59.13;101959.22;5099478;28;20029;-72
2022/07/14 06:45:15;;;;;;;11.05;3.63;;;;;;;18.70;59.26;101960.38;5033702;28;20046;-71
2022/07/14 06:47:55;;;;;;;12.82;3.88;;;;;;;18.67;59.63;101965.00;5019008;28;20070;-70
2022/07/14 06:50:24;;;;;;;10.68;3.35;;;;;;;18.63;60.23;101964.25;5071369;28;20061;-70
2022/07/14 06:52:54;;;;;;;10.48;3.40;;;;;;;18.59;60.53;101952.84;5062684;28;20088;-70
2022/07/14 06:55:22;;;;;;;10.88;4.03;;;;;;;18.64;60.14;101955.31;5076655;28;20040;-70
2022/07/14 06:57:51;;;;;;;10.52;4.45;;;;;;;18.64;59.28;101952.63;5074549;28;20885;-69
2022/07/14 07:00:28;;;;;;;11.40;4.32;;;;;;;18.63;59.24;101969.59;5075227;28;20128;-69
2022/07/14 07:02:56;;;;;;;18.75;5.32;;;;;;;18.55;58.93;101959.28;5074660;28;20044;-69
2022/07/14 07:08:36;;;;;;;14.80;3.38;;;;;;;18.45;59.42;101953.50;5074680;28;20037;-70
2022/07/14 07:11:05;;;;;;;13.35;3.13;;;;;;;18.47;59.62;101948.94;5074710;28;20065;-69
2022/07/14 07:13:36;;;;;;;15.68;3.63;;;;;;;18.44;59.90;101956.25;5090291;28;20053;-69
2022/07/14 07:16:10;;;;;;;10.57;3.40;;;;;;;18.44;59.71;101954.44;5073283;28;20590;-69
2022/07/14 07:18:38;;;;;;;13.38;3.15;;;;;;;18.54;59.62;101948.66;5075430;28;20051;-69
2022/07/14 07:21:07;;;;;;;12.02;3.25;;;;;;;18.58;59.72;101958.28;5073126;28;20098;-69
2022/07/14 07:23:36;;;;;;;13.90;2.70;;;;;;;18.69;59.41;101957.75;5074643;28;20112;-68
2022/07/14 07:26:04;;;;;;;10.25;2.50;;;;;;;18.73;59.05;101954.88;5074169;28;20123;-69
2022/07/14 07:28:34;;;;;;;11.13;2.97;;;;;;;18.69;58.56;101955.97;5074799;28;20073;-70
2022/07/14 07:31:01;;;;;;;10.00;2.67;;;;;;;18.72;59.19;101957.63;5073250;28;20385;-70
2022/07/14 07:33:29;;;;;;;11.38;2.13;;;;;;;18.82;58.97;101958.91;5074311;28;20047;-70
2022/07/14 07:36:00;;;;;;;11.15;2.20;;;;;;;18.90;57.89;101942.53;5074626;28;20044;-70
2022/07/14 07:38:28;;;;;;;9.45;2.10;;;;;;;18.95;58.12;101947.69;5073987;28;20465;-69
2022/07/14 07:40:55;;;;;;;8.32;2.28;;;;;;;19.00;57.28;101943.84;5073897;28;20037;-69
2022/07/14 07:43:22;;;;;;;15.25;3.13;;;;;;;19.00;57.64;101934.94;5073582;28;20045;-70
2022/07/14 07:45:50;;;;;;;15.52;2.88;;;;;;;19.12;57.96;101941.53;5072183;28;20041;-69
2022/07/14 07:48:19;;;;;;;9.20;2.10;;;;;;;19.28;56.80;101944.31;5073746;28;20045;-70
2022/07/14 07:50:47;;;;;;;8.02;1.88;;;;;;;19.33;55.81;101945.78;5073350;28;20049;-69
2022/07/14 07:53:15;;;;;;;31.50;3.78;;;;;;;19.36;56.22;101942.97;5073127;28;20578;-70
2022/07/14 07:55:42;;;;;;;8.55;1.90;;;;;;;19.50;55.33;101955.63;5089367;28;20828;-69
2022/07/14 07:58:10;;;;;;;6.10;1.42;;;;;;;19.55;54.04;101948.25;5071090;28;20107;-69
2022/07/14 08:00:38;;;;;;;7.65;1.58;;;;;;;19.56;53.89;101941.09;5088895;28;20079;-70
2022/07/14 08:03:07;;;;;;;6.20;1.40;;;;;;;19.56;53.92;101935.75;5073375;28;20488;-69
2022/07/14 08:05:35;;;;;;;9.40;1.90;;;;;;;19.56;54.71;101941.09;5074217;28;20037;-68
2022/07/14 08:08:22;;;;;;;5.25;1.63;;;;;;;19.62;55.49;101929.22;5073704;28;20546;-70
2022/07/14 08:10:49;;;;;;;8.43;1.70;;;;;;;19.76;55.11;101929.38;5073604;28;20124;-69
2022/07/14 08:13:17;;;;;;;7.47;1.70;;;;;;;19.93;55.65;101919.63;5073042;28;20045;-70
2022/07/14 08:15:46;;;;;;;6.32;1.55;;;;;;;20.21;52.78;101926.16;5073160;28;20545;-69
2022/07/14 08:18:14;;;;;;;10.63;1.83;;;;;;;20.23;51.77;101909.09;5073649;28;20130;-69
2022/07/14 08:20:44;;;;;;;7.97;1.60;;;;;;;20.16;51.67;101905.00;5073308;28;20539;-69
2022/07/14 08:23:12;;;;;;;8.52;1.70;;;;;;;20.15;52.23;101904.16;5089100;28;20763;-69
2022/07/14 08:25:40;;;;;;;9.60;1.45;;;;;;;20.17;51.87;101896.91;5073720;28;20049;-69
2022/07/14 08:28:34;;;;;;;11.63;2.22;;;;;;;20.19;52.42;101891.47;5073501;28;20052;-70
2022/07/14 08:31:02;;;;;;;9.85;1.80;;;;;;;20.27;52.03;101897.25;5072011;28;20049;-70
2022/07/14 08:33:56;;;;;;;6.78;1.73;;;;;;;20.37;51.94;101896.75;5072295;28;20110;-69
2022/07/14 08:36:26;;;;;;;6.40;1.73;;;;;;;20.50;50.46;101903.16;5050935;28;20855;-69
2022/07/14 08:38:54;;;;;;;5.85;1.50;;;;;;;20.42;50.82;101897.38;5052668;28;20041;-70
2022/07/14 08:41:24;;;;;;;9.18;1.60;;;;;;;20.28;52.21;101898.13;5053109;28;20483;-69
2022/07/14 08:43:52;;;;;;;6.80;1.45;;;;;;;20.34;52.21;101895.09;5069447;28;20054;-70
2022/07/14 08:46:20;;;;;;;6.55;1.20;;;;;;;20.42;51.84;101900.06;5071838;28;20539;-70
2022/07/14 08:48:55;;;;;;;8.38;1.58;;;;;;;20.50;52.15;101900.47;5073235;28;20103;-70
2022/07/14 08:51:26;;;;;;;8.48;1.75;;;;;;;20.67;51.40;101902.22;5072834;28;20069;-69
2022/07/14 08:53:54;;;;;;;8.38;1.40;;;;;;;20.76;49.83;101904.41;5073196;28;20581;-70
2022/07/14 08:56:22;;;;;;;7.70;1.35;;;;;;;20.88;48.31;101897.47;5065556;28;20578;-69
2022/07/14 08:58:50;;;;;;;9.23;1.35;;;;;;;20.90;48.28;101892.06;5069495;28;20092;-70
2022/07/14 09:01:18;;;;;;;5.85;1.30;;;;;;;20.90;48.49;101886.69;5068368;28;20092;-70
2022/07/14 09:03:46;;;;;;;5.55;1.35;;;;;;;21.08;47.17;101890.97;5052718;28;20085;-69
2022/07/14 09:06:58;;;;;;;8.30;1.58;;;;;;;21.15;48.24;101890.59;5053631;28;20045;-70
2022/07/14 09:09:31;;;;;;;5.65;1.27;;;;;;;21.18;47.62;101887.75;5052603;28;20747;-70
2022/07/14 09:12:10;;;;;;;5.03;1.30;;;;;;;21.20;48.25;101896.56;5073285;28;20041;-70
2022/07/14 09:17:58;;;;;;;8.80;1.42;;;;;;;21.35;47.38;101890.28;5088224;28;20095;-70
2022/07/14 09:20:33;;;;;;;6.57;1.30;;;;;;;21.39;47.98;101880.25;5072462;28;20033;-70
2022/07/14 09:23:04;;;;;;;7.07;1.40;;;;;;;21.39;48.34;101883.81;5086444;28;20045;-72
2022/07/14 09:25:38;;;;;;;8.63;1.50;;;;;;;21.55;48.47;101878.38;5070481;28;20043;-71
2022/07/14 09:28:07;;;;;;;4.63;0.93;;;;;;;21.70;47.20;101871.25;5072356;28;20049;-71
2022/07/14 09:30:34;;;;;;;5.80;1.20;;;;;;;21.87;46.31;101872.88;5063237;28;20114;-70
2022/07/14 09:33:04;;;;;;;7.32;1.20;;;;;;;21.92;45.68;101869.03;5071807;28;20041;-71
2022/07/14 09:35:34;;;;;;;9.82;1.38;;;;;;;21.92;45.84;101867.25;5071854;28;20048;-72
2022/07/14 09:38:18;;;;;;;7.60;1.30;;;;;;;21.98;46.46;101865.97;5066909;28;20091;-72
2022/07/14 09:40:47;;;;;;;4.82;1.10;;;;;;;22.10;47.11;101869.72;5071441;28;20119;-72
2022/07/14 09:43:17;;;;;;;7.20;0.95;;;;;;;22.30;45.73;101860.38;5071618;28;20052;-72
2022/07/14 09:45:50;;;;;;;9.23;1.10;;;;;;;22.50;46.50;101861.81;5069577;28;20772;-72
2022/07/14 09:48:20;;;;;;;5.07;1.20;;;;;;;22.70;44.68;101863.19;5071944;28;20120;-71
2022/07/14 09:51:00;;;;;;;5.93;1.15;;;;;;;22.78;44.35;101860.00;5070621;28;20040;-71
2022/07/14 09:53:31;;;;;;;11.52;1.58;;;;;;;22.87;44.76;101853.19;5070288;28;20265;-72
2022/07/14 09:56:04;;;;;;;8.48;1.67;;;;;;;23.02;44.54;101856.66;5072184;28;20056;-71
2022/07/14 09:58:40;;;;;;;6.60;1.10;;;;;;;23.14;42.57;101853.16;5081723;28;20463;-70
2022/07/14 10:01:15;;;;;;;5.40;1.00;;;;;;;23.18;42.05;101854.66;5073015;28;20048;-71
2022/07/14 10:03:49;;;;;;;3.95;1.08;;;;;;;23.27;42.25;101858.56;5071857;28;20074;-71
2022/07/14 10:06:17;;;;;;;4.30;1.27;;;;;;;23.34;41.58;101848.25;5070321;28;20048;-72
2022/07/14 10:09:05;;;;;;;3.80;0.95;;;;;;;23.47;40.55;101846.44;5083720;28;20053;-72
2022/07/14 10:11:36;;;;;;;8.40;1.20;;;;;;;23.62;40.62;101854.41;5071704;28;20107;-72
2022/07/14 10:14:05;;;;;;;5.80;1.10;;;;;;;23.78;40.46;101855.03;5071975;28;20546;-72
2022/07/14 10:16:35;;;;;;;22.17;2.13;;;;;;;23.86;40.08;101841.03;5070732;28;20523;-72
2022/07/14 10:19:04;;;;;;;16.90;2.00;;;;;;;24.01;40.34;101855.28;5078778;28;20045;-72
2022/07/14 10:21:41;;;;;;;11.90;1.02;;;;;;;24.18;39.90;101862.16;5058036;28;20041;-70
2022/07/14 10:24:12;;;;;;;12.55;1.40;;;;;;;24.22;39.35;101860.09;5069876;28;20140;-70
2022/07/14 10:26:42;;;;;;;13.10;1.33;;;;;;;24.28;40.02;101862.31;5071099;28;20543;-70
2022/07/14 10:29:10;;;;;;;10.88;1.42;;;;;;;24.40;39.34;101865.97;5086448;28;20128;-72
2022/07/14 10:31:46;;;;;;;5.00;1.20;;;;;;;24.48;37.20;101864.44;5070413;28;20045;-71
2022/07/14 10:34:42;;;;;;;5.10;1.00;;;;;;;24.49;36.51;101858.06;5061947;28;20537;-71
2022/07/14 10:37:29;;;;;;;2.35;1.00;;;;;;;24.58;37.11;101864.63;5074862;28;20049;-71
2022/07/14 10:40:43;;;;;;;5.38;1.08;;;;;;;24.81;36.79;101864.78;5074809;28;20080;-72
2022/07/14 10:43:17;;;;;;;12.18;1.58;;;;;;;25.05;36.83;101858.50;5054701;28;20530;-70
2022/07/14 10:45:55;;;;;;;4.32;1.20;;;;;;;25.24;36.41;101864.19;5070471;28;20037;-73
2022/07/14 10:48:36;;;;;;;4.47;0.90;;;;;;;25.46;34.51;101859.03;5072574;28;20041;-71
2022/07/14 10:51:31;;;;;;;3.63;0.90;;;;;;;25.18;35.25;101858.44;5061614;28;20051;-70
2022/07/14 10:54:14;;;;;;;2.75;0.90;;;;;;;25.09;35.48;101854.59;5053982;28;20033;-71
2022/07/14 10:57:17;;;;;;;12.57;1.20;;;;;;;25.17;38.13;101860.25;5063618;28;20040;-73
2022/07/14 10:59:47;;;;;;;4.60;1.30;;;;;;;25.45;37.43;101852.75;5073981;28;20045;-70
2022/07/14 11:02:15;;;;;;;8.13;1.23;;;;;;;25.66;36.58;101862.84;5067988;28;20501;-71
2022/07/14 11:07:52;;;;;;;10.48;1.30;;;;;;;25.71;37.12;101855.25;5075787;28;20056;-72
2022/07/14 11:10:25;;;;;;;6.47;1.08;;;;;;;25.87;37.34;101844.09;5072284;28;20111;-72
2022/07/14 11:12:59;;;;;;;7.17;1.00;;;;;;;26.12;36.28;101853.81;5061544;28;20041;-72
2022/07/14 11:15:43;;;;;;;5.00;1.00;;;;;;;26.28;33.94;101845.31;5065328;28;20119;-72
2022/07/14 11:18:17;;;;;;;15.10;1.90;;;;;;;26.28;34.33;101842.63;5053968;28;20607;-70
2022/07/14 11:20:55;;;;;;;;;;;;;;;26.34;34.87;101843.97;5074582;28;20108;-70
2022/07/14 11:23:30;;;;;;;13.82;1.40;;;;;;;26.45;32.84;101843.06;5060970;28;20688;-72
2022/07/14 11:26:05;;;;;;;6.85;1.35;;;;;;;26.39;34.31;101840.88;5053923;28;20042;-71
2022/07/14 11:28:49;;;;;;;13.77;1.60;;;;;;;26.43;34.25;101843.22;5081073;28;20064;-72
2022/07/14 11:31:22;;;;;;;4.40;1.10;;;;;;;26.45;33.70;101849.34;5090260;28;20056;-71
2022/07/14 11:37:16;;;;;;;9.80;1.48;;;;;;;26.61;32.73;101837.25;5072926;28;19928;-72
2022/07/14 11:40:39;;;;;;;12.02;1.77;;;;;;;26.58;33.64;101837.50;5047161;28;20064;-72
2022/07/14 11:43:28;;;;;;;8.10;1.50;;;;;;;26.56;33.94;101834.06;5073538;28;20503;-71
2022/07/14 11:45:58;;;;;;;12.48;1.27;;;;;;;26.58;33.29;101829.38;5072844;28;20888;-72
2022/07/14 11:48:34;;;;;;;27.33;2.22;;;;;;;26.63;34.19;101829.88;5072107;28;20052;-71
2022/07/14 11:51:17;;;;;;;7.72;1.73;;;;;;;26.71;33.29;101829.25;5071212;28;20095;-71
2022/07/14 11:53:44;;;;;;;7.03;1.13;;;;;;;26.62;32.67;101825.44;5073923;28;20044;-71
2022/07/14 11:56:13;;;;;;;25.30;2.75;;;;;;;26.61;33.19;101829.97;5072758;28;20089;-71
2022/07/14 11:58:40;;;;;;;9.43;1.60;;;;;;;26.57;33.52;101824.97;5071757;28;20091;-70